Time;durP1;ratioP1;P1;durP2;ratioP2;P2;SDS_P1;SDS_P2;PMS_P1;PMS_P2;Temp;Humidity;BMP_temperature;BMP_pressure;BME280_temperature;BME280_humidity;BME280_pressure;Samples;Min_cycle;Max_cycle;Signal;HPM_P1;HPM_P2
2023/04/19 00:00:13;;;;;;;21.38;13.35;;;;;;;10.89;100.00;100907.06;5056507;28;20330;-77
2023/04/19 00:02:40;;;;;;;27.20;13.65;;;;;;;10.92;100.00;100915.50;5056257;28;20444;-77
2023/04/19 00:05:06;;;;;;;23.23;13.05;;;;;;;10.89;100.00;100909.91;5056218;28;20031;-77
2023/04/19 00:07:32;;;;;;;19.23;12.60;;;;;;;10.79;100.00;100897.72;5052925;28;20385;-78
2023/04/19 00:09:57;;;;;;;21.30;12.88;;;;;;;10.86;100.00;100914.53;5054669;28;20021;-76
2023/04/19 00:12:23;;;;;;;23.77;13.23;;;;;;;10.85;100.00;100907.22;5054822;28;20025;-77
2023/04/19 00:14:48;;;;;;;21.63;13.13;;;;;;;10.82;100.00;100905.34;5056168;28;20493;-77
2023/04/19 00:17:13;;;;;;;20.45;12.18;;;;;;;10.74;100.00;100903.28;5054838;28;20119;-77
2023/04/19 00:19:39;;;;;;;22.95;12.85;;;;;;;10.75;100.00;100899.94;5056122;28;20021;-76
2023/04/19 00:22:04;;;;;;;21.23;12.73;;;;;;;10.76;100.00;100892.97;5056169;28;20021;-77
2023/04/19 00:24:30;;;;;;;19.75;11.30;;;;;;;10.54;100.00;100901.72;5055887;28;20055;-77
2023/04/19 00:26:56;;;;;;;24.00;12.20;;;;;;;10.53;100.00;100907.94;5055860;28;20024;-76
2023/04/19 00:29:21;;;;;;;19.98;12.32;;;;;;;10.51;100.00;100899.84;5056165;28;20032;-77
2023/04/19 00:31:47;;;;;;;19.30;11.88;;;;;;;10.48;100.00;100897.16;5055714;28;20366;-76
2023/04/19 00:34:12;;;;;;;17.80;11.45;;;;;;;10.54;100.00;100904.59;5054283;28;20086;-77
2023/04/19 00:36:38;;;;;;;21.75;12.68;;;;;;;10.49;100.00;100882.38;5055988;28;20024;-76
2023/04/19 00:39:03;;;;;;;20.75;11.82;;;;;;;10.40;100.00;100888.09;5055775;28;20386;-77
2023/04/19 00:41:28;;;;;;;21.52;12.55;;;;;;;10.36;100.00;100884.63;5055439;28;20396;-77
2023/04/19 00:43:54;;;;;;;19.90;11.10;;;;;;;10.37;100.00;100879.69;5054598;28;20389;-77
2023/04/19 00:46:20;;;;;;;24.98;12.65;;;;;;;10.36;100.00;100878.09;5055540;28;20525;-77
2023/04/19 00:48:46;;;;;;;21.05;12.48;;;;;;;10.31;100.00;100878.75;5056372;28;20028;-76
2023/04/19 00:51:11;;;;;;;25.67;13.05;;;;;;;10.28;100.00;100882.56;5054941;28;20439;-76
2023/04/19 00:53:37;;;;;;;29.25;12.98;;;;;;;10.14;100.00;100874.63;5055775;28;20061;-77
2023/04/19 00:56:04;;;;;;;16.95;10.18;;;;;;;10.08;100.00;100872.41;5055449;28;20032;-77
2023/04/19 00:58:30;;;;;;;22.48;11.75;;;;;;;10.04;100.00;100868.91;5055438;28;20415;-77
2023/04/19 01:00:56;;;;;;;19.88;11.45;;;;;;;9.98;100.00;100872.88;5055414;28;20429;-76
2023/04/19 01:03:22;;;;;;;18.65;11.40;;;;;;;9.88;100.00;100871.28;5055187;28;20458;-76
2023/04/19 01:05:47;;;;;;;19.00;11.77;;;;;;;9.88;100.00;100860.66;5055453;28;20021;-77
2023/04/19 01:08:13;;;;;;;19.52;11.48;;;;;;;9.79;100.00;100848.44;5055042;28;20100;-76
2023/04/19 01:10:39;;;;;;;17.35;10.20;;;;;;;9.77;100.00;100859.53;5054846;28;20446;-75
2023/04/19 01:13:04;;;;;;;19.55;11.32;;;;;;;9.66;100.00;100849.34;5055193;28;20111;-76
2023/04/19 01:15:30;;;;;;;16.60;9.98;;;;;;;9.62;100.00;100853.63;5055234;28;20029;-76
2023/04/19 01:17:56;;;;;;;21.33;10.00;;;;;;;9.60;100.00;100856.94;5055238;28;20082;-77
2023/04/19 01:20:23;;;;;;;16.08;9.60;;;;;;;9.52;100.00;100852.00;5055025;28;20033;-75
2023/04/19 01:22:48;;;;;;;14.25;9.38;;;;;;;9.53;100.00;100853.59;5054971;28;20358;-77
2023/04/19 01:25:14;;;;;;;17.27;11.05;;;;;;;9.49;100.00;100848.06;5052589;28;20029;-77
2023/04/19 01:27:39;;;;;;;20.95;10.27;;;;;;;9.47;100.00;100849.78;5052613;28;20025;-77
2023/04/19 01:30:05;;;;;;;17.70;10.15;;;;;;;9.41;100.00;100841.03;5051295;28;20030;-77
2023/04/19 01:32:31;;;;;;;13.65;9.27;;;;;;;9.41;100.00;100849.59;5052434;28;20021;-76
2023/04/19 01:34:56;;;;;;;14.05;9.50;;;;;;;9.46;100.00;100843.28;5052386;28;20445;-76
2023/04/19 01:37:22;;;;;;;18.10;10.40;;;;;;;9.46;100.00;100843.28;5051317;28;20032;-76
2023/04/19 01:39:47;;;;;;;16.33;10.50;;;;;;;9.42;100.00;100831.22;5053390;28;20025;-76
2023/04/19 01:42:13;;;;;;;15.38;10.40;;;;;;;9.37;100.00;100831.84;5052539;28;20036;-76
2023/04/19 01:44:38;;;;;;;14.27;9.38;;;;;;;9.37;100.00;100829.00;5052429;28;20032;-76
2023/04/19 01:47:04;;;;;;;20.13;11.15;;;;;;;9.40;100.00;100836.59;5050863;28;20029;-76
2023/04/19 01:49:29;;;;;;;18.48;10.52;;;;;;;9.38;100.00;100833.44;5052192;28;20025;-75
2023/04/19 01:51:55;;;;;;;16.48;10.18;;;;;;;9.30;100.00;100814.25;5051817;28;20045;-76
2023/04/19 01:54:20;;;;;;;17.13;9.57;;;;;;;9.28;100.00;100820.44;5051853;28;20036;-75
2023/04/19 01:56:45;;;;;;;17.60;10.80;;;;;;;9.30;100.00;100823.59;5052971;28;20477;-76
2023/04/19 01:59:11;;;;;;;17.20;9.68;;;;;;;9.25;100.00;100813.59;5054207;28;20067;-76
2023/04/19 02:01:36;;;;;;;19.00;10.13;;;;;;;9.21;100.00;100821.50;5054135;28;20039;-76
2023/04/19 02:04:02;;;;;;;15.18;9.70;;;;;;;9.20;100.00;100814.22;5054732;28;20029;-75
2023/04/19 02:06:27;;;;;;;15.07;9.13;;;;;;;9.07;100.00;100813.56;5054860;28;20021;-77
2023/04/19 02:08:53;;;;;;;17.70;8.93;;;;;;;8.99;100.00;100820.81;5054002;28;20020;-76
2023/04/19 02:11:18;;;;;;;15.00;8.38;;;;;;;8.87;100.00;100804.59;5054686;28;20472;-76
2023/04/19 02:13:44;;;;;;;9.82;6.85;;;;;;;8.86;100.00;100817.25;5054270;28;20021;-76
2023/04/19 02:16:09;;;;;;;11.23;6.80;;;;;;;8.70;100.00;100815.47;5054127;28;20032;-76
2023/04/19 02:18:37;;;;;;;12.20;6.63;;;;;;;8.68;100.00;100820.84;5053882;28;20025;-76
2023/04/19 02:21:04;;;;;;;11.23;6.57;;;;;;;8.76;100.00;100818.47;5054072;28;20469;-77
2023/04/19 02:23:29;;;;;;;13.73;6.97;;;;;;;8.79;100.00;100809.81;5053645;28;20025;-76
2023/04/19 02:25:55;;;;;;;11.02;7.10;;;;;;;8.80;100.00;100807.75;5053939;28;20032;-77
2023/04/19 02:28:20;;;;;;;13.23;6.97;;;;;;;8.86;100.00;100802.22;5053555;28;20432;-76
2023/04/19 02:30:45;;;;;;;10.95;7.60;;;;;;;8.92;100.00;100809.69;5052517;28;20021;-76
2023/04/19 02:33:11;;;;;;;10.85;7.18;;;;;;;8.76;100.00;100815.63;5052193;28;20052;-76
2023/04/19 02:35:37;;;;;;;11.27;7.57;;;;;;;8.80;100.00;100808.53;5053811;28;20032;-75
2023/04/19 02:38:03;;;;;;;10.27;6.90;;;;;;;8.80;100.00;100814.22;5054567;28;20061;-79
2023/04/19 02:40:28;;;;;;;11.90;6.75;;;;;;;8.85;100.00;100806.34;5053883;28;20025;-78
2023/04/19 02:42:53;;;;;;;10.48;6.57;;;;;;;8.91;100.00;100805.25;5054289;28;20079;-77
2023/04/19 02:45:19;;;;;;;9.02;5.78;;;;;;;8.86;100.00;100800.16;5053540;28;20029;-77
2023/04/19 02:47:45;;;;;;;10.30;6.60;;;;;;;8.71;100.00;100802.78;5053359;28;20354;-77
2023/04/19 02:50:11;;;;;;;9.63;5.82;;;;;;;8.70;100.00;100801.22;5053352;28;20024;-76
2023/04/19 02:52:37;;;;;;;12.25;6.15;;;;;;;8.66;100.00;100802.59;5053023;28;20051;-78
2023/04/19 02:55:03;;;;;;;9.07;5.90;;;;;;;8.63;100.00;100792.16;5053443;28;20373;-76
2023/04/19 02:57:29;;;;;;;9.85;5.50;;;;;;;8.61;100.00;100801.16;5054218;28;20021;-76
2023/04/19 02:59:54;;;;;;;10.35;5.30;;;;;;;8.60;100.00;100801.66;5053953;28;20442;-76
2023/04/19 03:02:20;;;;;;;7.82;5.53;;;;;;;8.53;100.00;100791.31;5053582;28;20021;-76
2023/04/19 03:04:46;;;;;;;10.30;5.63;;;;;;;8.39;100.00;100791.88;5053313;28;20029;-77
2023/04/19 03:07:11;;;;;;;10.63;5.78;;;;;;;8.38;100.00;100782.53;5052899;28;20373;-76
2023/04/19 03:09:37;;;;;;;11.20;5.53;;;;;;;8.46;100.00;100785.88;5053295;28;20021;-77
2023/04/19 03:12:02;;;;;;;9.20;6.03;;;;;;;8.53;100.00;100784.81;5053307;28;20017;-76
2023/04/19 03:14:28;;;;;;;9.23;5.90;;;;;;;8.55;100.00;100771.72;5053467;28;20108;-76
2023/04/19 03:16:53;;;;;;;8.73;5.90;;;;;;;8.50;100.00;100758.09;5053092;28;20028;-75
2023/04/19 03:19:18;;;;;;;9.95;5.82;;;;;;;8.59;100.00;100769.53;5053052;28;20025;-76
2023/04/19 03:21:44;;;;;;;11.25;6.35;;;;;;;8.63;100.00;100773.00;5052961;28;20021;-76
2023/04/19 03:24:09;;;;;;;9.50;6.00;;;;;;;8.52;100.00;100769.78;5052933;28;20017;-76
2023/04/19 03:26:35;;;;;;;9.63;4.95;;;;;;;8.49;100.00;100767.88;5053148;28;20029;-76
2023/04/19 03:29:02;;;;;;;10.15;5.25;;;;;;;8.48;100.00;100768.34;5053111;28;20033;-75
2023/04/19 03:31:28;;;;;;;7.75;4.28;;;;;;;8.28;100.00;100778.06;5051734;28;20036;-76
2023/04/19 03:33:53;;;;;;;9.57;5.22;;;;;;;8.23;100.00;100769.31;5051977;28;20116;-77
2023/04/19 03:36:19;;;;;;;9.63;4.88;;;;;;;8.16;100.00;100761.84;5049738;28;20155;-78
2023/04/19 03:38:44;;;;;;;10.45;5.05;;;;;;;8.23;100.00;100758.72;5049556;28;20070;-75
2023/04/19 03:41:20;;;;;;;7.15;4.35;;;;;;;8.28;100.00;100763.81;5051071;28;20096;-76
2023/04/19 03:43:45;;;;;;;11.52;5.38;;;;;;;8.24;100.00;100768.88;5051796;28;20087;-77
2023/04/19 03:46:11;;;;;;;9.25;4.50;;;;;;;8.18;98.99;100756.47;5051402;28;20110;-75
2023/04/19 03:48:36;;;;;;;9.00;4.18;;;;;;;8.25;99.71;100772.50;5050696;28;20545;-77
2023/04/19 03:51:02;;;;;;;7.05;4.28;;;;;;;8.31;99.93;100762.88;5050371;28;20025;-76
2023/04/19 03:53:27;;;;;;;7.72;4.65;;;;;;;8.29;100.00;100761.75;5051250;28;20463;-77
2023/04/19 03:55:53;;;;;;;11.43;5.18;;;;;;;8.24;100.00;100768.88;5052103;28;20091;-76
2023/04/19 03:58:18;;;;;;;9.30;4.97;;;;;;;8.18;100.00;100765.03;5050509;28;20032;-77
2023/04/19 04:00:43;;;;;;;7.85;4.95;;;;;;;8.17;100.00;100763.44;5050680;28;20291;-76
2023/04/19 04:03:09;;;;;;;10.88;6.68;;;;;;;8.10;100.00;100760.84;5049203;28;20112;-76
2023/04/19 04:05:34;;;;;;;8.95;5.75;;;;;;;8.11;100.00;100765.28;5050340;28;20087;-76
2023/04/19 04:08:00;;;;;;;7.70;5.22;;;;;;;8.07;100.00;100761.75;5050332;28;20462;-76
2023/04/19 04:10:27;;;;;;;9.07;5.50;;;;;;;8.07;100.00;100761.75;5049391;28;20029;-76
2023/04/19 04:12:54;;;;;;;8.55;5.03;;;;;;;8.07;100.00;100767.44;5051261;28;20051;-77
2023/04/19 04:15:20;;;;;;;8.15;5.45;;;;;;;8.07;100.00;100764.59;5051742;28;20033;-77
2023/04/19 04:17:55;;;;;;;8.10;5.10;;;;;;;8.08;100.00;100765.41;5051758;28;20032;-76
2023/04/19 04:20:27;;;;;;;5.72;4.38;;;;;;;8.02;100.00;100770.88;5054751;28;20048;-76
2023/04/19 04:23:20;;;;;;;13.95;4.63;;;;;;;7.93;100.00;100783.00;5053768;28;20021;-77
2023/04/19 04:25:59;;;;;;;12.77;4.43;;;;;;;7.78;100.00;100769.75;5053581;28;20470;-76
2023/04/19 04:28:26;;;;;;;7.82;3.90;;;;;;;7.81;100.00;100777.41;5053657;28;20041;-76
2023/04/19 04:30:52;;;;;;;7.55;4.20;;;;;;;7.68;100.00;100760.38;5036959;28;20036;-76
2023/04/19 04:33:40;;;;;;;8.10;4.50;;;;;;;7.38;100.00;100756.16;5052133;28;20047;-77
2023/04/19 04:36:06;;;;;;;7.55;4.63;;;;;;;7.21;100.00;100766.13;5054217;28;20466;-77
2023/04/19 04:38:32;;;;;;;10.43;4.57;;;;;;;6.97;100.00;100760.03;5055208;28;20131;-77
2023/04/19 04:40:59;;;;;;;7.95;5.15;;;;;;;6.59;100.00;100767.75;5037946;28;20035;-76
2023/04/19 04:43:28;;;;;;;10.68;5.25;;;;;;;6.42;100.00;100775.59;5055347;28;20458;-78
2023/04/19 04:45:56;;;;;;;11.20;4.97;;;;;;;6.20;100.00;100780.31;5055581;28;20056;-75
2023/04/19 04:48:22;;;;;;;21.42;7.68;;;;;;;6.08;100.00;100781.88;5054587;28;20035;-77
2023/04/19 04:50:48;;;;;;;15.88;7.43;;;;;;;5.99;100.00;100787.41;5054604;28;20047;-75
2023/04/19 04:53:13;;;;;;;10.77;5.50;;;;;;;5.96;100.00;100784.66;5055329;28;20478;-73
2023/04/19 04:55:40;;;;;;;10.65;5.95;;;;;;;5.96;100.00;100785.47;5053728;28;20436;-72
2023/04/19 04:58:06;;;;;;;10.23;5.40;;;;;;;5.98;100.00;100777.31;5055392;28;20055;-73
2023/04/19 05:00:32;;;;;;;12.70;5.32;;;;;;;5.83;100.00;100781.81;5054472;28;20036;-74
2023/04/19 05:02:58;;;;;;;10.70;5.05;;;;;;;5.71;100.00;100800.34;5020958;28;20032;-74
2023/04/19 05:05:26;;;;;;;14.45;6.25;;;;;;;5.63;100.00;100795.34;5054054;28;20037;-74
2023/04/19 05:07:51;;;;;;;27.30;7.57;;;;;;;5.66;100.00;100791.59;5054979;28;20481;-75
2023/04/19 05:10:19;;;;;;;14.38;6.45;;;;;;;5.70;100.00;100795.13;5054616;28;20037;-74
2023/04/19 05:12:46;;;;;;;24.60;6.70;;;;;;;5.77;100.00;100803.44;5054251;28;20108;-75
2023/04/19 05:15:12;;;;;;;12.77;6.35;;;;;;;5.84;100.00;100803.25;5057331;28;20033;-75
2023/04/19 05:17:38;;;;;;;14.80;8.05;;;;;;;5.78;100.00;100786.00;5073706;28;20044;-75
2023/04/19 05:20:05;;;;;;;13.93;6.70;;;;;;;5.97;100.00;100795.56;5073029;28;20127;-75
2023/04/19 05:22:33;;;;;;;10.90;5.95;;;;;;;6.04;100.00;100800.25;5056749;28;20099;-75
2023/04/19 05:25:01;;;;;;;12.55;7.45;;;;;;;6.01;100.00;100795.47;5074826;28;20028;-75
2023/04/19 05:27:26;;;;;;;15.07;6.43;;;;;;;6.17;100.00;100789.72;5074909;28;20473;-75
2023/04/19 05:29:52;;;;;;;12.15;6.22;;;;;;;6.36;100.00;100785.13;5073789;28;20062;-74
2023/04/19 05:32:18;;;;;;;10.60;5.97;;;;;;;6.45;100.00;100786.03;5074366;28;20029;-75
2023/04/19 05:34:43;;;;;;;12.27;5.65;;;;;;;6.47;100.00;100780.72;5074406;28;20032;-75
2023/04/19 05:37:09;;;;;;;17.00;5.72;;;;;;;6.61;100.00;100777.44;5073539;28;20474;-78
2023/04/19 05:39:34;;;;;;;13.40;5.97;;;;;;;6.65;100.00;100772.44;5072522;28;20028;-80
2023/04/19 05:42:00;;;;;;;9.20;5.57;;;;;;;6.70;100.00;100764.59;5072425;28;20150;-79
2023/04/19 05:44:26;;;;;;;8.48;5.22;;;;;;;6.71;100.00;100766.19;5070402;28;20020;-78
2023/04/19 05:46:51;;;;;;;16.10;6.10;;;;;;;6.80;100.00;100761.41;5071965;28;20028;-79
2023/04/19 05:49:16;;;;;;;12.43;5.25;;;;;;;6.92;100.00;100760.59;5072485;28;20388;-79
2023/04/19 05:51:42;;;;;;;13.10;5.15;;;;;;;6.90;100.00;100765.13;5071717;28;20036;-78
2023/04/19 05:54:11;;;;;;;9.98;5.05;;;;;;;6.96;100.00;100766.16;5071797;28;20025;-77
2023/04/19 05:56:37;;;;;;;10.73;5.75;;;;;;;7.08;100.00;100751.91;5074970;28;20036;-82
2023/04/19 05:59:02;;;;;;;7.93;4.70;;;;;;;7.21;100.00;100754.75;5076866;28;20033;-80
2023/04/19 06:01:28;;;;;;;9.82;5.10;;;;;;;7.33;100.00;100747.41;5073743;28;20028;-79
2023/04/19 06:03:53;;;;;;;12.90;6.68;;;;;;;7.43;100.00;100747.03;5073843;28;20033;-80
2023/04/19 06:06:20;;;;;;;6.05;3.92;;;;;;;7.44;100.00;100756.38;5073891;28;20029;-80
2023/04/19 06:08:46;;;;;;;9.07;5.80;;;;;;;7.40;100.00;100755.72;5074279;28;20044;-80
2023/04/19 06:11:11;;;;;;;18.17;6.97;;;;;;;7.35;100.00;100765.63;5073952;28;20024;-79
2023/04/19 06:13:37;;;;;;;21.13;11.73;;;;;;;7.28;100.00;100765.84;5055814;28;20397;-79
2023/04/19 06:16:03;;;;;;;13.82;7.75;;;;;;;7.33;100.00;100778.69;5073836;28;20048;-79
2023/04/19 06:18:28;;;;;;;11.85;6.18;;;;;;;7.32;100.00;100768.59;5073742;28;20388;-79
2023/04/19 06:20:53;;;;;;;17.52;6.45;;;;;;;7.53;100.00;100777.16;5073836;28;20064;-79
2023/04/19 06:23:19;;;;;;;13.65;5.68;;;;;;;7.74;100.00;100766.25;5073748;28;20068;-78
2023/04/19 06:25:47;;;;;;;9.35;4.68;;;;;;;7.89;100.00;100773.81;5072709;28;20414;-79
2023/04/19 06:28:12;;;;;;;12.30;5.38;;;;;;;7.60;100.00;100778.16;5073642;28;20051;-79
2023/04/19 06:30:38;;;;;;;13.43;4.55;;;;;;;7.76;100.00;100783.69;5073752;28;20052;-79
2023/04/19 06:33:03;;;;;;;12.75;4.80;;;;;;;8.26;100.00;100783.41;5072284;28;20020;-78
2023/04/19 06:35:29;;;;;;;7.93;3.92;;;;;;;8.65;100.00;100775.41;5071847;28;20129;-79
2023/04/19 06:37:55;;;;;;;11.05;4.60;;;;;;;9.38;100.00;100778.47;5073368;28;20028;-79
2023/04/19 06:40:20;;;;;;;9.30;4.93;;;;;;;10.40;100.00;100784.44;5073022;28;20053;-80
2023/04/19 06:42:46;;;;;;;10.02;5.35;;;;;;;10.94;100.00;100778.53;5073184;28;20032;-79
2023/04/19 06:45:11;;;;;;;15.90;4.47;;;;;;;11.05;90.82;100775.16;5073638;28;20021;-79
2023/04/19 06:47:37;;;;;;;8.65;4.05;;;;;;;11.20;89.34;100776.03;5073939;28;20024;-80
2023/04/19 06:50:02;;;;;;;11.77;4.63;;;;;;;11.04;85.53;100773.56;5073781;28;20025;-78
2023/04/19 06:52:28;;;;;;;18.63;5.80;;;;;;;10.88;87.49;100769.03;5073560;28;20049;-80
2023/04/19 06:54:53;;;;;;;10.95;4.65;;;;;;;11.29;88.77;100769.47;5073202;28;20327;-80
2023/04/19 06:57:19;;;;;;;7.18;3.75;;;;;;;11.36;85.49;100774.84;5073277;28;20103;-79
2023/04/19 06:59:44;;;;;;;8.05;4.57;;;;;;;11.13;83.97;100779.25;5073057;28;20339;-79
2023/04/19 07:02:10;;;;;;;12.43;4.72;;;;;;;11.02;85.67;100778.97;5072782;28;20485;-79
2023/04/19 07:04:35;;;;;;;10.45;4.70;;;;;;;10.71;84.04;100784.19;5072690;28;20027;-78
2023/04/19 07:07:01;;;;;;;9.88;4.05;;;;;;;10.51;84.29;100787.59;5073195;28;20027;-79
2023/04/19 07:09:27;;;;;;;10.75;4.47;;;;;;;10.24;87.47;100779.88;5072691;28;20460;-79
2023/04/19 07:11:53;;;;;;;13.52;4.28;;;;;;;10.39;90.35;100786.50;5073099;28;20044;-78
2023/04/19 07:14:18;;;;;;;7.32;4.88;;;;;;;11.00;90.14;100767.22;5072849;28;20031;-79
2023/04/19 07:16:45;;;;;;;7.78;3.95;;;;;;;12.20;87.50;100774.44;5073103;28;20028;-79
2023/04/19 07:19:11;;;;;;;8.73;4.32;;;;;;;14.04;87.38;100765.72;5072983;28;20095;-78
2023/04/19 07:21:38;;;;;;;14.18;5.05;;;;;;;15.77;70.54;100771.50;5072761;28;20464;-79
2023/04/19 07:24:05;;;;;;;6.63;4.03;;;;;;;17.33;58.00;100774.56;5071369;28;20058;-81
2023/04/19 07:26:30;;;;;;;15.30;4.35;;;;;;;19.74;49.85;100775.22;5072763;28;20103;-78
2023/04/19 07:28:55;;;;;;;16.10;4.47;;;;;;;20.63;43.66;100766.06;5072968;28;20446;-76
2023/04/19 07:31:21;;;;;;;13.13;4.30;;;;;;;22.35;40.01;100772.78;5072459;28;20071;-77
2023/04/19 07:33:46;;;;;;;13.88;4.65;;;;;;;23.98;37.67;100767.97;5072603;28;20028;-77
2023/04/19 07:36:12;;;;;;;8.73;4.55;;;;;;;23.68;35.30;100762.75;5054597;28;20107;-74
2023/04/19 07:38:37;;;;;;;5.95;3.75;;;;;;;22.46;33.86;100766.72;5072692;28;20032;-75
2023/04/19 07:41:04;;;;;;;7.78;4.70;;;;;;;21.06;36.34;100760.06;5071328;28;20044;-74
2023/04/19 07:43:29;;;;;;;9.27;4.80;;;;;;;20.24;38.02;100751.38;5071310;28;20028;-75
2023/04/19 07:45:55;;;;;;;15.57;5.53;;;;;;;19.26;37.78;100764.44;5071162;28;20016;-75
2023/04/19 07:48:20;;;;;;;17.58;5.53;;;;;;;18.82;39.02;100768.53;5071456;28;20025;-75
2023/04/19 07:50:46;;;;;;;10.20;6.03;;;;;;;19.06;40.04;100765.66;5072558;28;20081;-75
2023/04/19 07:53:11;;;;;;;10.88;4.75;;;;;;;19.67;38.68;100761.31;5074848;28;20375;-75
2023/04/19 07:55:37;;;;;;;9.63;5.03;;;;;;;20.21;39.27;100752.44;5076082;28;20104;-75
2023/04/19 07:58:02;;;;;;;7.80;4.68;;;;;;;21.40;37.06;100753.59;5076234;28;20030;-74
2023/04/19 08:00:30;;;;;;;8.15;4.10;;;;;;;22.91;35.35;100760.59;5076513;28;20095;-75
2023/04/19 08:02:56;;;;;;;9.15;4.43;;;;;;;24.89;32.96;100763.19;5074745;28;20039;-74
2023/04/19 08:05:22;;;;;;;10.65;5.07;;;;;;;25.17;31.48;100747.63;5074674;28;20020;-75
2023/04/19 08:07:47;;;;;;;10.13;4.47;;;;;;;25.06;31.72;100748.78;5076121;28;20043;-85
2023/04/19 08:10:14;;;;;;;5.47;4.00;;;;;;;24.43;29.64;100762.31;5074563;28;20021;-83
2023/04/19 08:12:40;;;;;;;6.00;4.43;;;;;;;21.91;31.34;100754.97;5075989;28;20024;-85
2023/04/19 08:15:07;;;;;;;10.80;5.32;;;;;;;19.99;33.95;100767.28;5076742;28;20393;-85
2023/04/19 08:17:33;;;;;;;7.53;4.80;;;;;;;18.51;36.82;100766.94;5076514;28;20062;-85
2023/04/19 08:19:58;;;;;;;7.07;4.72;;;;;;;16.98;39.38;100764.38;5076490;28;20115;-87
2023/04/19 08:22:24;;;;;;;8.40;5.00;;;;;;;16.29;42.12;100776.91;5076417;28;20044;-82
2023/04/19 08:24:50;;;;;;;7.55;4.97;;;;;;;15.96;43.78;100743.78;5073898;28;20047;-86
2023/04/19 08:27:16;;;;;;;9.18;4.82;;;;;;;16.34;44.68;100776.94;5056098;28;20028;-84
2023/04/19 08:29:42;;;;;;;12.60;5.55;;;;;;;16.75;43.56;100765.69;5076693;28;20074;-84
2023/04/19 08:32:07;;;;;;;7.10;5.18;;;;;;;16.78;43.27;100761.75;5075451;28;20024;-81
2023/04/19 08:34:36;;;;;;;8.05;5.68;;;;;;;15.82;44.60;100762.09;5074142;28;20020;-83
2023/04/19 08:37:02;;;;;;;7.45;5.63;;;;;;;15.15;46.44;100767.50;5073705;28;20116;-84
2023/04/19 08:39:31;;;;;;;9.23;5.00;;;;;;;14.37;49.34;100766.88;5074241;28;20025;-83
2023/04/19 08:42:04;;;;;;;9.48;5.20;;;;;;;13.71;51.80;100769.78;5075353;28;20389;-83
2023/04/19 08:44:30;;;;;;;8.98;5.80;;;;;;;13.10;55.55;100772.56;5075304;28;20028;-83
2023/04/19 08:46:57;;;;;;;19.63;7.10;;;;;;;12.70;58.53;100761.78;5057668;28;20048;-84
2023/04/19 08:49:23;;;;;;;19.88;7.18;;;;;;;12.14;62.51;100762.09;5073970;28;20470;-84
2023/04/19 08:51:49;;;;;;;19.83;6.07;;;;;;;11.78;64.13;100766.06;5074070;28;20045;-83
2023/04/19 08:54:15;;;;;;;10.43;6.10;;;;;;;11.52;66.66;100751.50;5074049;28;20047;-82
2023/04/19 08:56:40;;;;;;;14.32;5.90;;;;;;;11.25;70.39;100725.94;5075391;28;20422;-83
2023/04/19 08:59:06;;;;;;;11.60;6.20;;;;;;;11.02;73.56;100721.78;5075429;28;20100;-82
2023/04/19 09:01:31;;;;;;;8.88;5.93;;;;;;;10.85;75.46;100721.41;5075433;28;20365;-82
2023/04/19 09:03:57;;;;;;;10.25;6.30;;;;;;;10.79;77.85;100714.75;5074797;28;20232;-83
2023/04/19 09:06:23;;;;;;;12.23;6.30;;;;;;;10.53;80.24;100722.19;5075075;28;20106;-83
2023/04/19 09:08:50;;;;;;;10.55;6.15;;;;;;;10.10;82.77;100723.44;5075100;28;20028;-82
2023/04/19 09:11:15;;;;;;;10.93;5.90;;;;;;;9.89;85.06;100718.75;5074866;28;20053;-82
2023/04/19 09:13:43;;;;;;;9.77;6.25;;;;;;;9.88;87.85;100717.16;5075379;28;20103;-80
2023/04/19 09:16:23;;;;;;;14.93;7.00;;;;;;;9.65;90.53;100707.94;5074705;28;20031;-82
2023/04/19 09:18:57;;;;;;;10.02;6.13;;;;;;;9.86;90.53;100708.25;5073753;28;20108;-82
2023/04/19 09:21:30;;;;;;;10.98;6.70;;;;;;;10.31;89.96;100710.22;5075106;28;20058;-83
2023/04/19 09:23:56;;;;;;;8.27;6.18;;;;;;;10.84;87.55;100699.00;5074873;28;20025;-82
2023/04/19 09:26:21;;;;;;;13.73;6.43;;;;;;;11.18;84.45;100706.28;5074782;28;20381;-83
2023/04/19 09:28:57;;;;;;;11.95;5.95;;;;;;;11.13;83.62;100710.59;5075033;28;20029;-84
2023/04/19 09:31:23;;;;;;;13.43;7.22;;;;;;;11.07;83.35;100703.16;5075077;28;20016;-82
2023/04/19 09:33:49;;;;;;;11.70;6.72;;;;;;;10.94;83.83;100709.13;5075042;28;20082;-83
2023/04/19 09:36:29;;;;;;;12.13;6.35;;;;;;;10.83;84.42;100703.94;5074766;28;20024;-82
2023/04/19 09:38:55;;;;;;;13.95;6.68;;;;;;;10.72;84.46;100703.69;5074416;28;20350;-82
2023/04/19 09:41:20;;;;;;;8.23;6.07;;;;;;;10.62;85.45;100707.88;5074854;28;20419;-83
2023/04/19 09:43:46;;;;;;;13.80;5.93;;;;;;;10.45;87.16;100703.81;5074965;28;20373;-82
2023/04/19 09:46:34;;;;;;;10.73;6.40;;;;;;;10.36;88.06;100712.41;5074416;28;20492;-82
2023/04/19 09:49:22;;;;;;;9.40;6.13;;;;;;;10.52;88.17;100704.25;5074311;28;20476;-83
2023/04/19 09:51:49;;;;;;;15.00;6.00;;;;;;;10.72;87.39;100712.28;5074293;28;20045;-82
2023/04/19 09:54:16;;;;;;;11.07;7.13;;;;;;;10.78;87.33;100706.66;5074302;28;20137;-82
2023/04/19 09:56:42;;;;;;;18.25;7.47;;;;;;;10.91;86.04;100704.38;5074488;28;20029;-81
2023/04/19 09:59:11;;;;;;;13.40;7.00;;;;;;;11.08;85.32;100705.53;5074507;28;20024;-82
2023/04/19 10:01:40;;;;;;;10.25;5.78;;;;;;;11.04;84.54;100709.84;5072843;28;20072;-80
2023/04/19 10:04:06;;;;;;;15.07;7.05;;;;;;;10.91;83.74;100701.50;5075043;28;20020;-83
2023/04/19 10:06:34;;;;;;;10.70;6.72;;;;;;;10.69;85.32;100706.69;5073469;28;20354;-81
2023/04/19 10:09:04;;;;;;;15.70;6.18;;;;;;;10.66;86.98;100707.69;5074338;28;20057;-82
2023/04/19 10:11:40;;;;;;;12.80;7.55;;;;;;;10.65;87.11;100706.88;5073838;28;20063;-81
2023/04/19 10:14:05;;;;;;;16.38;7.50;;;;;;;10.53;87.95;100710.78;5073655;28;20020;-81
2023/04/19 10:16:31;;;;;;;26.15;9.00;;;;;;;10.46;89.06;100711.09;5074164;28;20032;-83
2023/04/19 10:18:57;;;;;;;27.38;8.98;;;;;;;10.17;90.53;100711.69;5073789;28;20044;-81
2023/04/19 10:21:23;;;;;;;18.63;8.52;;;;;;;9.89;91.92;100713.03;5072557;28;20063;-82
2023/04/19 10:23:49;;;;;;;23.33;7.95;;;;;;;9.77;93.52;100709.06;5073270;28;20032;-82
2023/04/19 10:26:14;;;;;;;17.92;7.63;;;;;;;9.66;95.05;100697.31;5072655;28;20431;-82
2023/04/19 10:28:41;;;;;;;13.00;6.85;;;;;;;9.54;95.99;100689.72;5055498;28;20025;-81
2023/04/19 10:31:10;;;;;;;10.13;6.65;;;;;;;9.43;97.65;100693.06;5073244;28;20057;-84
2023/04/19 10:33:37;;;;;;;10.50;6.65;;;;;;;9.58;99.27;100687.50;5073691;28;20040;-80
2023/04/19 10:36:03;;;;;;;12.02;7.05;;;;;;;9.77;99.12;100689.09;5074343;28;20024;-84
2023/04/19 10:38:40;;;;;;;16.33;6.85;;;;;;;10.11;98.15;100685.84;5076185;28;20024;-83
2023/04/19 10:41:10;;;;;;;12.13;6.18;;;;;;;10.43;95.75;100689.22;5056972;28;20028;-81
2023/04/19 10:43:37;;;;;;;17.17;6.38;;;;;;;10.53;93.41;100690.78;5072884;28;20021;-83
2023/04/19 10:46:14;;;;;;;19.30;12.93;;;;;;;10.57;93.85;100679.94;5073037;28;20043;-82
2023/04/19 10:48:52;;;;;;;15.05;8.02;;;;;;;10.80;93.13;100693.47;5073245;28;20543;-82
2023/04/19 10:51:21;;;;;;;15.95;7.28;;;;;;;10.50;92.32;100689.66;5073495;28;20497;-81
2023/04/19 10:53:49;;;;;;;14.55;7.30;;;;;;;10.73;93.97;100682.38;5074013;28;20520;-81
2023/04/19 10:56:32;;;;;;;13.05;7.95;;;;;;;10.99;93.48;100669.22;5092858;28;20045;-84
2023/04/19 10:59:01;;;;;;;23.27;9.90;;;;;;;11.65;91.89;100676.81;5096954;28;20052;-79
2023/04/19 11:01:46;;;;;;;34.10;9.35;;;;;;;11.74;88.33;100676.72;5095757;28;20020;-83
2023/04/19 11:04:15;;;;;;;19.00;8.45;;;;;;;11.58;88.42;100680.03;5091105;28;20059;-85
2023/04/19 11:06:50;;;;;;;14.93;6.80;;;;;;;11.30;88.77;100685.22;5089462;28;20048;-81
2023/04/19 11:09:37;;;;;;;21.45;7.63;;;;;;;11.13;89.47;100675.50;5092679;28;20107;-85
2023/04/19 11:12:07;;;;;;;16.80;7.93;;;;;;;10.98;90.67;100679.06;5078493;28;20094;-83
2023/04/19 11:14:42;;;;;;;20.77;8.60;;;;;;;10.86;92.99;100667.88;5080139;28;20104;-85